Time;durP1;ratioP1;P1;durP2;ratioP2;P2;SDS_P1;SDS_P2;PMS_P1;PMS_P2;Temp;Humidity;BMP_temperature;BMP_pressure;BME280_temperature;BME280_humidity;BME280_pressure;Samples;Min_cycle;Max_cycle;Signal;HPM_P1;HPM_P2
2024/03/30 00:01:29;;;;;;;;;;;;;;;22.35;38.90;92572.66;4937336;29;7110;-59
2024/03/30 00:04:24;;;;;;;;;;;;;;;22.32;39.08;92590.13;4937328;29;7368;-59
2024/03/30 00:07:06;;;;;;;;;;;;;;;22.27;39.14;92558.88;4884300;29;7640;-59
2024/03/30 00:09:56;;;;;;;;;;;;;;;22.29;38.95;92591.22;5071261;28;6617;-58
2024/03/30 00:12:22;;;;;;;;;;;;;;;22.35;38.58;92564.44;5048883;28;7054;-57
2024/03/30 00:14:52;;;;;;;;;;;;;;;22.28;38.92;92567.81;5069848;28;7018;-57
2024/03/30 00:17:25;;;;;;;;;;;;;;;22.29;39.07;92561.09;5052565;28;7362;-57
2024/03/30 00:20:06;;;;;;;;;;;;;;;22.34;38.86;92571.16;5048601;28;7022;-57
2024/03/30 00:23:05;;;;;;;;;;;;;;;22.34;39.02;92568.44;5051122;28;9205;-60
2024/03/30 00:25:32;;;;;;;;;;;;;;;22.33;39.04;92583.41;5050063;28;7381;-60
2024/03/30 00:27:59;;;;;;;;;;;;;;;22.29;39.02;92566.56;5049747;28;7635;-60
2024/03/30 00:30:36;;;;;;;;;;;;;;;22.27;38.67;92583.53;5048820;28;7038;-60
2024/03/30 00:33:29;;;;;;;;;;;;;;;22.36;38.63;92579.59;5050266;28;9626;-60
2024/03/30 00:35:57;;;;;;;;;;;;;;;22.30;38.76;92579.72;5047748;28;7266;-60
2024/03/30 00:38:37;;;;;;;;;;;;;;;22.23;38.66;92574.16;5066541;28;7221;-60
2024/03/30 00:41:34;;;;;;;;;;;;;;;22.26;38.87;92595.75;5050846;28;7562;-60
2024/03/30 00:44:01;;;;;;;;;;;;;;;22.24;38.59;92587.34;5008967;28;7272;-60
2024/03/30 00:46:56;;;;;;;;;;;;;;;22.26;38.53;92606.72;5008925;28;7288;-60
2024/03/30 00:49:24;;;;;;;;;;;;;;;22.25;38.51;92615.47;4915548;29;7034;-60
2024/03/30 00:51:53;;;;;;;;;;;;;;;22.24;38.56;92605.75;4928198;29;7120;-59
2024/03/30 00:54:28;;;;;;;;;;;;;;;22.17;38.61;92615.38;4912061;29;7569;-60
2024/03/30 00:57:04;;;;;;;;;;;;;;;22.19;38.82;92618.31;4931427;29;7329;-60
2024/03/30 00:59:48;;;;;;;;;;;;;;;22.23;38.54;92607.75;4933231;29;6999;-60
2024/03/30 01:02:51;;;;;;;;;;;;;;;22.23;38.80;92624.19;4936201;29;7022;-60
2024/03/30 01:05:48;;;;;;;;;;;;;;;22.25;38.92;92596.28;4946206;29;7201;-60
2024/03/30 01:08:14;;;;;;;;;;;;;;;22.20;38.57;92589.66;4883047;29;7054;-60
2024/03/30 01:10:40;;;;;;;;;;;;;;;22.28;38.46;92589.72;4911859;29;8574;-60
2024/03/30 01:13:06;;;;;;;;;;;;;;;22.23;38.54;92596.06;4911851;29;7149;-60
2024/03/30 01:15:32;;;;;;;;;;;;;;;22.30;38.55;92596.16;4911681;29;9570;-60
2024/03/30 01:18:34;;;;;;;;;;;;;;;22.32;38.54;92584.66;4915293;29;9523;-59
2024/03/30 01:21:48;;;;;;;;;;;;;;;22.32;38.45;92584.66;4890899;29;8911;-60
2024/03/30 01:24:24;;;;;;;;;;;;;;;22.24;38.13;92581.13;4925245;29;7602;-60
2024/03/30 01:27:02;;;;;;;;;;;;;;;22.19;38.26;92558.06;4915251;29;9265;-60
2024/03/30 01:29:47;;;;;;;;;;;;;;;22.25;38.29;92596.28;4914950;29;9161;-60
2024/03/30 01:32:21;;;;;;;;;;;;;;;22.24;38.37;92576.38;4908450;29;9120;-66
2024/03/30 01:34:57;;;;;;;;;;;;;;;22.23;38.50;92555.72;4913665;29;7352;-66
2024/03/30 01:37:24;;;;;;;;;;;;;;;22.19;38.23;92546.38;4899488;29;7973;-66
2024/03/30 01:40:02;;;;;;;;;;;;;;;22.18;38.29;92573.03;4908970;29;7040;-66
2024/03/30 01:42:30;;;;;;;;;;;;;;;22.15;38.63;92535.00;4917823;29;9446;-66
2024/03/30 01:45:00;;;;;;;;;;;;;;;22.18;38.51;92561.34;4931574;28;9100;-66
2024/03/30 01:47:30;;;;;;;;;;;;;;;22.22;38.40;92545.31;4928797;29;6934;-65
2024/03/30 01:50:00;;;;;;;;;;;;;;;22.14;37.60;92534.28;4936625;28;9355;-65
2024/03/30 01:52:31;;;;;;;;;;;;;;;22.12;38.42;92539.56;4939850;28;7151;-66
2024/03/30 01:55:16;;;;;;;;;;;;;;;22.16;38.32;92550.19;4979459;28;7317;-66
2024/03/30 01:57:47;;;;;;;;;;;;;;;22.18;38.36;92561.34;4994848;28;7302;-66
2024/03/30 02:00:23;;;;;;;;;;;;;;;22.18;38.22;92542.19;5012358;28;9946;-66
2024/03/30 02:02:52;;;;;;;;;;;;;;;22.07;38.03;92531.47;5018680;28;7650;-65
2024/03/30 02:05:20;;;;;;;;;;;;;;;22.13;38.03;92537.56;5015695;28;7938;-65
2024/03/30 02:08:32;;;;;;;;;;;;;;;22.11;38.22;92549.03;5016373;28;7014;-66
2024/03/30 02:11:00;;;;;;;;;;;;;;;22.12;38.05;92553.25;4974285;28;7297;-65
2024/03/30 02:13:26;;;;;;;;;;;;;;;22.09;38.34;92531.69;4976306;28;7377;-66
2024/03/30 02:15:54;;;;;;;;;;;;;;;22.10;37.93;92519.44;4972891;28;7062;-66
2024/03/30 02:18:21;;;;;;;;;;;;;;;22.10;37.59;92513.97;4997779;28;7106;-65
2024/03/30 02:21:02;;;;;;;;;;;;;;;22.10;37.93;92500.28;4974795;28;7146;-65
2024/03/30 02:23:29;;;;;;;;;;;;;;;22.11;38.41;92493.53;4963623;28;7756;-66
2024/03/30 02:26:29;;;;;;;;;;;;;;;22.10;37.67;92494.81;4973866;28;6913;-65
2024/03/30 02:32:40;;;;;;;;;;;;;;;22.11;37.92;92497.03;4933724;29;7217;-66
2024/03/30 02:35:16;;;;;;;;;;;;;;;22.15;37.64;92502.91;4916144;29;7581;-66
2024/03/30 02:37:46;;;;;;;;;;;;;;;22.13;38.00;92504.69;4916589;29;7174;-66
2024/03/30 02:40:27;;;;;;;;;;;;;;;22.15;38.05;92491.22;4916898;29;7095;-65
2024/03/30 02:43:06;;;;;;;;;;;;;;;22.16;37.95;92506.38;4920309;29;7205;-57
2024/03/30 02:45:52;;;;;;;;;;;;;;;22.15;38.04;92491.22;4900609;29;7019;-57
2024/03/30 02:48:19;;;;;;;;;;;;;;;22.08;37.88;92492.59;4971204;28;7022;-57
2024/03/30 02:50:47;;;;;;;;;;;;;;;22.13;38.02;92505.44;4993325;28;7027;-57
2024/03/30 02:53:28;;;;;;;;;;;;;;;22.10;38.09;92505.75;4977691;28;7290;-57
2024/03/30 02:55:55;;;;;;;;;;;;;;;22.13;37.88;92519.13;4992036;28;7027;-57
2024/03/30 02:58:24;;;;;;;;;;;;;;;22.17;37.86;92513.31;4991617;28;7463;-57
2024/03/30 03:00:50;;;;;;;;;;;;;;;22.16;38.25;92506.38;4991539;28;7329;-57
2024/03/30 03:03:17;;;;;;;;;;;;;;;22.16;37.58;92498.88;4991239;28;7072;-57
2024/03/30 03:05:45;;;;;;;;;;;;;;;22.15;37.81;92477.53;5065816;28;7893;-57
2024/03/30 03:08:10;;;;;;;;;;;;;;;22.10;37.73;92481.13;5051209;28;7056;-57
2024/03/30 03:10:36;;;;;;;;;;;;;;;22.19;37.77;92508.03;5053225;28;7033;-57
2024/03/30 03:13:05;;;;;;;;;;;;;;;22.11;38.13;92477.88;5048121;28;7209;-57
2024/03/30 03:15:31;;;;;;;;;;;;;;;22.14;37.68;92498.69;5048094;28;7207;-57
2024/03/30 03:17:59;;;;;;;;;;;;;;;22.14;37.65;92506.19;5053696;28;7381;-57
2024/03/30 03:20:25;;;;;;;;;;;;;;;22.09;38.10;92494.09;5053649;28;7274;-57
2024/03/30 03:22:53;;;;;;;;;;;;;;;22.16;37.55;92500.91;5066235;28;9861;-57
2024/03/30 03:25:19;;;;;;;;;;;;;;;22.12;37.74;92492.28;5050796;28;9175;-57
2024/03/30 03:27:47;;;;;;;;;;;;;;;22.13;37.61;92477.31;5052379;28;7102;-57
2024/03/30 03:30:13;;;;;;;;;;;;;;;22.17;38.08;92470.25;5052173;28;7009;-57
2024/03/30 03:32:48;;;;;;;;;;;;;;;22.18;37.42;92462.78;5051826;28;7041;-57
2024/03/30 03:35:15;;;;;;;;;;;;;;;22.17;37.88;92450.34;5050055;28;7044;-57
2024/03/30 03:37:40;;;;;;;;;;;;;;;22.18;37.73;92435.41;5052466;28;7241;-57
2024/03/30 03:40:08;;;;;;;;;;;;;;;22.22;38.22;92435.78;5052718;28;9298;-57
2024/03/30 03:42:34;;;;;;;;;;;;;;;22.23;37.85;92421.56;5051443;28;7187;-57
2024/03/30 03:45:02;;;;;;;;;;;;;;;22.22;38.02;92409.16;5053769;28;7413;-57
2024/03/30 03:47:30;;;;;;;;;;;;;;;22.19;37.88;92384.81;5063709;28;6973;-57
2024/03/30 03:50:00;;;;;;;;;;;;;;;22.23;37.94;92382.47;5053145;28;7827;-57
2024/03/30 03:52:53;;;;;;;;;;;;;;;22.29;37.99;92402.97;5069323;28;7216;-60
2024/03/30 03:55:21;;;;;;;;;;;;;;;22.29;37.89;92386.53;5034492;28;7053;-60
2024/03/30 03:57:52;;;;;;;;;;;;;;;22.30;37.19;92393.50;5080357;28;9045;-60
2024/03/30 04:00:36;;;;;;;;;;;;;;;22.33;37.53;92383.47;5054246;28;7607;-59
2024/03/30 04:03:12;;;;;;;;;;;;;;;22.31;37.62;92394.25;5047229;28;7036;-60
2024/03/30 04:05:50;;;;;;;;;;;;;;;22.24;37.84;92362.78;5057743;28;7109;-60
2024/03/30 04:08:32;;;;;;;;;;;;;;;22.28;37.85;92362.44;5052495;28;9017;-60
2024/03/30 04:11:01;;;;;;;;;;;;;;;22.26;37.83;92343.09;5051761;28;7063;-62
2024/03/30 04:13:27;;;;;;;;;;;;;;;22.24;37.72;92349.09;5057931;28;7005;-60
2024/03/30 04:15:53;;;;;;;;;;;;;;;22.30;37.97;92349.69;5048423;28;8968;-60
2024/03/30 04:18:47;;;;;;;;;;;;;;;22.33;37.60;92348.63;5059690;28;7026;-60
2024/03/30 04:21:26;;;;;;;;;;;;;;;22.27;37.80;92344.56;4985787;28;7636;-60
2024/03/30 04:23:52;;;;;;;;;;;;;;;22.27;37.70;92355.50;4990150;28;7905;-60
2024/03/30 04:26:29;;;;;;;;;;;;;;;22.20;37.60;92358.94;4992211;28;9407;-60
2024/03/30 04:28:56;;;;;;;;;;;;;;;22.24;37.62;92381.22;4975748;28;7005;-64
2024/03/30 04:31:37;;;;;;;;;;;;;;;22.23;37.83;92371.53;4992058;28;8409;-60
2024/03/30 04:34:12;;;;;;;;;;;;;;;22.24;37.90;92362.06;4992331;28;7205;-59
2024/03/30 04:36:39;;;;;;;;;;;;;;;22.25;37.63;92341.63;4991109;28;7022;-59
2024/03/30 04:39:05;;;;;;;;;;;;;;;22.23;37.59;92350.34;4989644;28;9421;-59
2024/03/30 04:41:31;;;;;;;;;;;;;;;22.23;37.32;92355.09;4973449;28;7013;-59
2024/03/30 04:43:56;;;;;;;;;;;;;;;22.21;37.64;92322.78;4990211;28;7217;-59
2024/03/30 04:46:33;;;;;;;;;;;;;;;22.16;37.43;92325.69;4991176;28;6988;-59
2024/03/30 04:49:14;;;;;;;;;;;;;;;22.23;37.65;92333.94;5008558;28;7116;-59
2024/03/30 04:51:43;;;;;;;;;;;;;;;22.14;37.57;92317.97;4975136;28;7335;-59
2024/03/30 04:54:19;;;;;;;;;;;;;;;22.22;37.77;92332.47;4975769;28;9138;-59
2024/03/30 04:56:45;;;;;;;;;;;;;;;22.17;37.43;92341.56;4995864;28;7703;-59
2024/03/30 04:59:25;;;;;;;;;;;;;;;22.20;37.81;92354.19;5053817;28;7254;-59
2024/03/30 05:02:04;;;;;;;;;;;;;;;22.15;37.51;92346.84;5069191;28;7048;-65
2024/03/30 05:04:31;;;;;;;;;;;;;;;22.13;37.44;92351.38;5055882;28;6976;-65
2024/03/30 05:06:57;;;;;;;;;;;;;;;22.22;37.85;92361.84;5050365;28;7225;-65
2024/03/30 05:09:26;;;;;;;;;;;;;;;22.21;37.66;92341.94;5050885;28;6953;-65
2024/03/30 05:11:54;;;;;;;;;;;;;;;22.26;37.59;92348.56;5052179;28;7434;-66
2024/03/30 05:14:24;;;;;;;;;;;;;;;22.35;37.89;92329.66;5049364;28;7061;-66
2024/03/30 05:16:50;;;;;;;;;;;;;;;22.37;37.83;92321.63;5056370;28;7044;-65
2024/03/30 05:22:15;;;;;;;;;;;;;;;22.31;37.47;92323.03;5056480;28;9053;-65
2024/03/30 05:24:42;;;;;;;;;;;;;;;22.23;37.66;92306.56;5058495;28;7399;-63
2024/03/30 05:27:08;;;;;;;;;;;;;;;22.21;37.63;92320.03;5082063;28;7186;-63
2024/03/30 05:29:38;;;;;;;;;;;;;;;22.18;37.51;92314.91;5053333;28;7025;-63
2024/03/30 05:32:15;;;;;;;;;;;;;;;22.19;37.70;92317.13;5043030;28;7009;-63
2024/03/30 05:35:13;;;;;;;;;;;;;;;22.21;37.53;92311.84;5052702;28;9124;-64
2024/03/30 05:37:53;;;;;;;;;;;;;;;22.15;37.76;92322.19;5051786;28;7270;-63
2024/03/30 05:40:27;;;;;;;;;;;;;;;22.18;37.95;92318.41;5052042;28;7390;-63
2024/03/30 05:42:55;;;;;;;;;;;;;;;22.17;37.43;92303.22;5051898;28;7060;-63
2024/03/30 05:45:26;;;;;;;;;;;;;;;22.16;37.21;92320.22;5052021;28;7197;-64
2024/03/30 05:48:03;;;;;;;;;;;;;;;22.08;37.51;92306.44;5061039;28;7047;-63
2024/03/30 05:50:36;;;;;;;;;;;;;;;22.13;37.31;92321.28;5053073;28;6975;-63
2024/03/30 05:53:10;;;;;;;;;;;;;;;22.15;37.76;92299.56;5069940;28;7036;-65
2024/03/30 05:56:11;;;;;;;;;;;;;;;22.16;37.56;92304.50;5036289;28;7267;-65
2024/03/30 05:58:37;;;;;;;;;;;;;;;22.16;37.62;92295.56;4992013;28;7196;-64
2024/03/30 06:01:03;;;;;;;;;;;;;;;22.17;37.99;92310.72;4995544;28;6990;-64
2024/03/30 06:03:33;;;;;;;;;;;;;;;22.16;38.20;92292.81;5012213;28;8648;-59
2024/03/30 06:06:10;;;;;;;;;;;;;;;22.10;37.90;92287.47;4988843;28;7531;-60
2024/03/30 06:08:37;;;;;;;;;;;;;;;22.13;38.23;92300.09;5010643;28;9493;-60
2024/03/30 06:11:03;;;;;;;;;;;;;;;22.08;38.13;92273.59;5016557;28;7244;-59
2024/03/30 06:13:28;;;;;;;;;;;;;;;22.14;38.20;92265.97;4997423;28;7272;-59
2024/03/30 06:16:04;;;;;;;;;;;;;;;22.11;37.61;92266.31;4998046;28;9053;-59
2024/03/30 06:18:30;;;;;;;;;;;;;;;22.14;38.14;92265.97;4995536;28;9117;-59
2024/03/30 06:21:21;;;;;;;;;;;;;;;22.15;38.19;92272.19;5007757;28;9609;-59
2024/03/30 06:24:12;;;;;;;;;;;;;;;22.10;37.47;92264.84;5006838;28;9102;-60
2024/03/30 06:26:48;;;;;;;;;;;;;;;22.00;37.05;92272.09;5021298;28;8796;-59
2024/03/30 06:29:26;;;;;;;;;;;;;;;21.99;37.24;92276.81;5007251;28;7040;-60
2024/03/30 06:32:01;;;;;;;;;;;;;;;22.00;37.63;92280.31;5018724;28;7324;-62
2024/03/30 06:35:06;;;;;;;;;;;;;;;22.03;37.67;92276.50;5052998;28;7085;-64
2024/03/30 06:37:32;;;;;;;;;;;;;;;21.99;37.50;92267.91;5052294;28;7025;-59
2024/03/30 06:46:06;;;;;;;;;;;;;;;21.87;37.62;92270.19;5048644;28;7853;-59
2024/03/30 06:48:59;;;;;;;;;;;;;;;21.89;37.55;92280.59;5070581;28;7255;-60
2024/03/30 06:51:25;;;;;;;;;;;;;;;21.86;37.57;92279.66;5053587;28;6948;-62
2024/03/30 06:53:55;;;;;;;;;;;;;;;21.84;37.36;92282.19;5072029;28;8062;-59
2024/03/30 06:56:42;;;;;;;;;;;;;;;21.83;37.89;92283.47;5052140;28;7027;-60
2024/03/30 06:59:20;;;;;;;;;;;;;;;21.80;38.20;92265.34;5054505;28;7308;-59
2024/03/30 07:02:05;;;;;;;;;;;;;;;21.86;37.60;92274.19;5070400;28;6871;-59
2024/03/30 07:04:40;;;;;;;;;;;;;;;21.77;37.82;92272.63;5052745;28;9381;-59
2024/03/30 07:07:35;;;;;;;;;;;;;;;21.84;38.15;92267.78;5051595;28;7435;-59
2024/03/30 07:10:06;;;;;;;;;;;;;;;21.82;38.74;92273.03;5074990;28;7224;-59
2024/03/30 07:12:34;;;;;;;;;;;;;;;21.82;38.42;92273.03;5050823;28;8907;-55
2024/03/30 07:15:00;;;;;;;;;;;;;;;21.78;38.75;92274.09;5049845;28;7033;-55
2024/03/30 07:17:45;;;;;;;;;;;;;;;21.77;39.11;92269.91;5046732;28;7549;-55
2024/03/30 07:20:27;;;;;;;;;;;;;;;21.70;38.59;92278.81;5048757;28;8183;-55
2024/03/30 07:22:54;;;;;;;;;;;;;;;21.74;39.17;92279.19;5064543;28;6980;-56
2024/03/30 07:25:21;;;;;;;;;;;;;;;21.73;39.49;92279.72;5057499;28;7630;-55
2024/03/30 07:27:59;;;;;;;;;;;;;;;21.76;39.24;92273.19;5073449;28;7042;-55
2024/03/30 07:30:27;;;;;;;;;;;;;;;21.74;39.34;92272.97;5063833;28;7020;-55
2024/03/30 07:33:09;;;;;;;;;;;;;;;21.66;38.44;92259.22;5052023;28;7150;-55
2024/03/30 07:35:41;;;;;;;;;;;;;;;21.69;38.94;92271.84;5067900;28;8003;-55
2024/03/30 07:38:27;;;;;;;;;;;;;;;21.67;39.16;92279.84;5066620;28;8293;-55
2024/03/30 07:40:55;;;;;;;;;;;;;;;21.63;39.02;92263.06;5049876;28;9388;-56
2024/03/30 07:43:30;;;;;;;;;;;;;;;21.66;38.44;92272.19;5041708;28;7132;-56
2024/03/30 07:46:00;;;;;;;;;;;;;;;21.64;38.50;92269.25;5064745;28;9121;-56
2024/03/30 07:48:33;;;;;;;;;;;;;;;21.66;38.30;92264.00;5047770;28;7221;-56
2024/03/30 07:51:07;;;;;;;;;;;;;;;21.65;38.21;92270.72;5050698;28;7331;-56
2024/03/30 07:53:38;;;;;;;;;;;;;;;21.67;38.14;92290.06;5057348;28;7215;-56
2024/03/30 07:56:07;;;;;;;;;;;;;;;21.70;38.91;92273.31;5052628;28;9113;-56
2024/03/30 07:58:41;;;;;;;;;;;;;;;21.68;38.15;92283.34;5054183;28;7450;-56
2024/03/30 08:01:09;;;;;;;;;;;;;;;21.66;38.40;92278.38;5051921;28;9508;-56
2024/03/30 08:03:36;;;;;;;;;;;;;;;21.67;38.13;92303.75;5047324;28;7438;-60
2024/03/30 08:06:03;;;;;;;;;;;;;;;21.65;38.33;92276.94;5080440;28;7033;-56
2024/03/30 08:08:31;;;;;;;;;;;;;;;21.66;38.23;92303.00;5058409;28;7308;-57
2024/03/30 08:11:18;;;;;;;;;;;;;;;21.63;38.38;92273.25;5052528;28;7040;-57
2024/03/30 08:13:44;;;;;;;;;;;;;;;21.62;38.22;92280.72;5059128;28;7063;-57
2024/03/30 08:16:12;;;;;;;;;;;;;;;21.62;37.54;92294.41;5044353;28;8361;-57
2024/03/30 08:18:40;;;;;;;;;;;;;;;21.62;37.70;92293.66;5053082;28;7302;-56
2024/03/30 08:21:08;;;;;;;;;;;;;;;21.59;38.02;92272.88;5051170;28;7049;-59
2024/03/30 08:23:43;;;;;;;;;;;;;;;21.63;37.21;92278.72;5064640;28;9535;-61
2024/03/30 08:26:58;;;;;;;;;;;;;;;21.67;36.30;92293.53;5044955;28;7053;-66
2024/03/30 08:29:30;;;;;;;;;;;;;;;21.67;37.19;92301.00;5060282;28;6988;-66
2024/03/30 08:31:59;;;;;;;;;;;;;;;21.66;37.67;92281.13;5053223;28;8069;-66
2024/03/30 08:34:26;;;;;;;;;;;;;;;21.68;37.25;92284.03;5056346;28;7238;-66
2024/03/30 08:37:00;;;;;;;;;;;;;;;21.68;37.72;92286.06;5057642;28;9480;-67
2024/03/30 08:39:28;;;;;;;;;;;;;;;21.63;37.13;92270.53;5051923;28;7065;-66
2024/03/30 08:41:58;;;;;;;;;;;;;;;21.58;37.87;92277.59;5052784;28;7102;-66
2024/03/30 08:44:26;;;;;;;;;;;;;;;21.63;38.14;92267.78;5077980;28;7116;-66
2024/03/30 08:47:06;;;;;;;;;;;;;;;21.66;38.20;92272.19;5052036;28;8696;-66
2024/03/30 08:49:38;;;;;;;;;;;;;;;21.62;37.50;92271.78;5052366;28;9519;-66
2024/03/30 08:52:13;;;;;;;;;;;;;;;21.68;38.52;92275.84;5056661;28;7429;-66
2024/03/30 08:54:39;;;;;;;;;;;;;;;21.62;38.22;92256.09;5055041;28;7291;-66
2024/03/30 08:57:05;;;;;;;;;;;;;;;21.64;37.79;92282.94;5066377;28;9388;-66
2024/03/30 08:59:33;;;;;;;;;;;;;;;21.58;37.79;92274.84;5045231;28;6944;-66
2024/03/30 09:02:02;;;;;;;;;;;;;;;21.66;38.35;92283.84;5063860;28;7126;-68
2024/03/30 09:04:28;;;;;;;;;;;;;;;21.63;37.64;92281.47;5051816;28;9185;-69
2024/03/30 09:06:57;;;;;;;;;;;;;;;21.61;37.80;92294.94;5078257;28;8196;-68
2024/03/30 09:09:28;;;;;;;;;;;;;;;21.64;38.28;92319.22;5051547;28;9386;-68
2024/03/30 09:11:56;;;;;;;;;;;;;;;21.64;37.99;92302.81;5053101;28;7224;-66
2024/03/30 09:14:25;;;;;;;;;;;;;;;21.64;38.30;92296.63;5053469;28;9498;-66
2024/03/30 09:16:59;;;;;;;;;;;;;;;21.68;39.52;92291.53;5054154;28;7337;-65
2024/03/30 09:19:42;;;;;;;;;;;;;;;21.65;40.25;92312.50;5058178;28;7261;-65
2024/03/30 09:22:27;;;;;;;;;;;;;;;21.70;40.46;92314.38;5048841;28;7083;-67
2024/03/30 09:24:54;;;;;;;;;;;;;;;21.65;41.82;92304.28;5038088;28;7008;-66
2024/03/30 09:27:31;;;;;;;;;;;;;;;21.88;41.42;92298.28;5052813;28;7038;-64
2024/03/30 09:29:57;;;;;;;;;;;;;;;21.98;42.74;92302.75;5052115;28;7007;-64
2024/03/30 09:32:58;;;;;;;;;;;;;;;22.09;42.45;92296.97;5054453;28;7585;-63
2024/03/30 09:35:44;;;;;;;;;;;;;;;22.11;42.00;92312.88;5043735;28;7565;-63
2024/03/30 09:38:12;;;;;;;;;;;;;;;22.35;59.15;92339.84;5053611;28;7472;-63
2024/03/30 09:40:54;;;;;;;;;;;;;;;22.99;62.10;92335.09;5055045;28;7136;-62
2024/03/30 09:43:35;;;;;;;;;;;;;;;23.52;62.75;92343.50;5055152;28;7034;-61
2024/03/30 09:46:02;;;;;;;;;;;;;;;23.82;56.49;92340.06;5053980;28;7610;-63
2024/03/30 09:48:38;;;;;;;;;;;;;;;24.14;56.04;92332.03;5051611;28;9295;-61
2024/03/30 09:51:05;;;;;;;;;;;;;;;;;;5051937;28;7094;-58
2024/03/30 09:53:36;;;;;;;;;;;;;;;24.33;42.18;92334.41;5082881;28;7103;-61
2024/03/30 09:56:05;;;;;;;;;;;;;;;24.31;40.82;92329.47;5051990;28;7056;-59
2024/03/30 09:58:46;;;;;;;;;;;;;;;24.08;39.45;92301.28;5049513;28;7111;-59
2024/03/30 10:01:26;;;;;;;;;;;;;;;23.23;38.58;92292.75;5057665;28;7056;-59
2024/03/30 10:04:11;;;;;;;;;;;;;;;22.70;38.29;92309.03;5073643;28;8921;-61
2024/03/30 10:07:00;;;;;;;;;;;;;;;22.35;38.77;92296.78;5052550;28;7831;-61
2024/03/30 10:09:33;;;;;;;;;;;;;;;22.18;39.37;92317.66;5049029;28;7018;-61
2024/03/30 10:12:50;;;;;;;;;;;;;;;22.05;39.09;92321.22;5053312;28;7046;-60
2024/03/30 10:15:23;;;;;;;;;;;;;;;21.92;39.32;92317.84;5053362;28;7233;-59
2024/03/30 10:17:51;;;;;;;;;;;;;;;21.83;39.54;92313.56;5049756;28;8906;-59
2024/03/30 10:20:17;;;;;;;;;;;;;;;21.82;39.75;92317.53;5065581;28;7340;-59
2024/03/30 10:22:47;;;;;;;;;;;;;;;21.74;39.72;92312.03;5052403;28;7241;-59
2024/03/30 10:25:15;;;;;;;;;;;;;;;21.64;39.41;92313.75;5052438;28;9464;-59
2024/03/30 10:27:49;;;;;;;;;;;;;;;21.67;39.62;92318.16;5062823;28;7009;-59
2024/03/30 10:30:20;;;;;;;;;;;;;;;21.69;39.43;92310.16;5061283;28;7320;-59
2024/03/30 10:33:21;;;;;;;;;;;;;;;21.71;40.24;92323.28;5053956;28;7555;-59
2024/03/30 10:35:57;;;;;;;;;;;;;;;21.67;40.12;92329.09;5046409;28;9312;-59
2024/03/30 10:38:37;;;;;;;;;;;;;;;21.69;39.71;92310.16;5045061;28;9369;-59
2024/03/30 10:41:25;;;;;;;;;;;;;;;21.68;39.64;92333.28;5048581;28;7064;-67
2024/03/30 10:44:04;;;;;;;;;;;;;;;21.63;39.79;92327.97;5042675;28;7634;-67
2024/03/30 10:46:34;;;;;;;;;;;;;;;21.61;39.88;92330.50;5052703;28;7069;-67
2024/03/30 10:49:04;;;;;;;;;;;;;;;21.63;39.88;92317.75;5049147;28;7057;-67
2024/03/30 10:51:36;;;;;;;;;;;;;;;21.63;40.14;92334.19;5057493;28;7040;-67
2024/03/30 10:54:18;;;;;;;;;;;;;;;21.68;39.83;92330.56;5052603;28;8969;-67
2024/03/30 10:57:00;;;;;;;;;;;;;;;21.69;39.83;92326.56;5035181;28;7055;-68
2024/03/30 10:59:28;;;;;;;;;;;;;;;21.66;40.95;92319.41;5042714;28;7056;-67
2024/03/30 11:02:14;;;;;;;;;;;;;;;21.69;40.14;92326.56;5049158;28;7645;-68
2024/03/30 11:05:07;;;;;;;;;;;;;;;21.71;40.87;92331.50;5045087;28;7430;-68
2024/03/30 11:07:43;;;;;;;;;;;;;;;21.63;41.44;92323.25;5048926;28;7037;-66
2024/03/30 11:10:14;;;;;;;;;;;;;;;21.69;41.46;92326.56;5048869;28;7048;-64
2024/03/30 11:12:40;;;;;;;;;;;;;;;21.67;41.00;92314.69;5073848;28;7270;-65
2024/03/30 11:15:09;;;;;;;;;;;;;;;21.56;40.57;92306.75;5048888;28;7756;-66
2024/03/30 11:17:47;;;;;;;;;;;;;;;21.55;41.23;92313.50;5068756;28;7973;-65
2024/03/30 11:20:22;;;;;;;;;;;;;;;21.59;40.09;92316.63;5077957;28;7116;-66
2024/03/30 11:23:31;;;;;;;;;;;;;;;21.62;39.83;92310.06;5053913;28;9557;-65
2024/03/30 11:26:09;;;;;;;;;;;;;;;21.64;39.92;92307.56;5063906;28;7139;-65
2024/03/30 11:29:08;;;;;;;;;;;;;;;21.76;39.97;92312.22;5045741;28;7529;-66
2024/03/30 11:31:49;;;;;;;;;;;;;;;21.86;39.83;92325.47;5053139;28;7208;-65
2024/03/30 11:35:00;;;;;;;;;;;;;;;21.99;39.08;92308.97;5053110;28;7159;-67
2024/03/30 11:37:42;;;;;;;;;;;;;;;22.09;39.02;92298.97;5050074;28;6985;-67
2024/03/30 11:40:49;;;;;;;;;;;;;;;22.10;38.66;92292.97;5059892;28;7364;-67
2024/03/30 11:43:45;;;;;;;;;;;;;;;22.06;38.20;92270.66;5020489;28;7053;-64
2024/03/30 11:46:16;;;;;;;;;;;;;;;22.03;38.61;92279.25;5023120;28;7700;-65
2024/03/30 11:48:45;;;;;;;;;;;;;;;22.07;39.16;92271.41;5012110;28;9041;-65
2024/03/30 11:51:49;;;;;;;;;;;;;;;22.07;38.54;92298.78;5010998;28;7307;-60
2024/03/30 11:54:35;;;;;;;;;;;;;;;22.06;37.94;92269.94;5011030;28;7043;-60
2024/03/30 11:57:10;;;;;;;;;;;;;;;22.05;38.25;92257.53;5013106;28;9007;-60
2024/03/30 11:59:55;;;;;;;;;;;;;;;22.00;38.50;92253.66;5024495;28;9063;-60
2024/03/30 12:02:22;;;;;;;;;;;;;;;22.08;38.27;92254.44;4993130;28;7051;-60
2024/03/30 12:04:51;;;;;;;;;;;;;;;22.06;37.10;92248.03;5008759;28;9746;-58
2024/03/30 12:07:20;;;;;;;;;;;;;;;22.18;36.15;92246.47;4993087;28;7244;-60
2024/03/30 12:10:01;;;;;;;;;;;;;;;22.27;35.46;92259.66;5010607;28;9398;-60
2024/03/30 12:13:01;;;;;;;;;;;;;;;22.42;35.30;92267.97;4995345;28;7025;-61
2024/03/30 12:15:29;;;;;;;;;;;;;;;22.33;34.65;92254.78;4917071;29;9720;-60
2024/03/30 12:17:56;;;;;;;;;;;;;;;22.53;34.11;92256.69;4942337;28;7051;-60
2024/03/30 12:20:25;;;;;;;;;;;;;;;22.58;33.93;92261.25;4991675;28;6968;-60
2024/03/30 12:22:56;;;;;;;;;;;;;;;22.56;33.45;92269.28;4991080;28;8868;-60
2024/03/30 12:25:35;;;;;;;;;;;;;;;22.62;33.22;92260.97;4991106;28;7074;-60
2024/03/30 12:28:06;;;;;;;;;;;;;;;22.71;33.28;92266.66;4991355;28;9428;-60
2024/03/30 12:31:03;;;;;;;;;;;;;;;22.73;33.40;92269.56;4985842;28;7332;-61
2024/03/30 12:33:30;;;;;;;;;;;;;;;22.71;32.95;92274.13;4993098;28;7243;-61
2024/03/30 12:36:27;;;;;;;;;;;;;;;22.63;32.96;92268.63;4989818;28;7040;-61
2024/03/30 12:39:14;;;;;;;;;;;;;;;22.58;32.80;92263.25;4950469;28;7374;-60
2024/03/30 12:41:55;;;;;;;;;;;;;;;22.49;33.14;92262.50;4937300;29;7304;-60
2024/03/30 12:44:38;;;;;;;;;;;;;;;22.48;33.21;92265.78;4952967;28;7034;-60
2024/03/30 12:47:06;;;;;;;;;;;;;;;22.37;33.48;92255.88;4962373;28;7069;-60
2024/03/30 12:49:34;;;;;;;;;;;;;;;22.33;34.57;92247.28;4952337;28;7200;-60
2024/03/30 12:52:03;;;;;;;;;;;;;;;22.29;35.36;92251.66;4996021;28;7095;-61
2024/03/30 12:54:44;;;;;;;;;;;;;;;22.36;35.03;92254.41;5010898;28;7371;-60
2024/03/30 12:57:40;;;;;;;;;;;;;;;22.33;35.40;92265.72;5016963;28;7413;-60
2024/03/30 13:00:15;;;;;;;;;;;;;;;22.29;35.64;92248.91;4932760;29;7172;-60
2024/03/30 13:03:10;;;;;;;;;;;;;;;22.31;35.20;92266.28;4904661;29;7047;-57
2024/03/30 13:06:07;;;;;;;;;;;;;;;22.38;35.31;92245.66;4932324;29;9177;-57
2024/03/30 13:08:48;;;;;;;;;;;;;;;22.36;35.34;92253.66;4910570;29;8217;-57
2024/03/30 13:11:34;;;;;;;;;;;;;;;22.44;35.84;92257.19;4899944;29;9921;-57
2024/03/30 13:14:00;;;;;;;;;;;;;;;22.41;35.54;92259.00;4898373;29;9409;-57
2024/03/30 13:16:28;;;;;;;;;;;;;;;22.42;36.62;92257.72;4928536;28;9101;-58
2024/03/30 13:18:54;;;;;;;;;;;;;;;22.34;35.33;92248.00;4932928;29;7057;-57
2024/03/30 13:21:25;;;;;;;;;;;;;;;22.34;36.17;92256.22;4945286;28;7061;-57
2024/03/30 13:24:09;;;;;;;;;;;;;;;22.30;36.38;92236.66;4952916;28;9406;-57
2024/03/30 13:26:41;;;;;;;;;;;;;;;22.31;36.03;92243.63;4948197;28;7204;-57
2024/03/30 13:29:10;;;;;;;;;;;;;;;22.31;36.17;92240.88;4944412;28;7029;-57
2024/03/30 13:31:47;;;;;;;;;;;;;;;22.26;36.37;92206.16;4944449;28;7332;-57
2024/03/30 13:34:15;;;;;;;;;;;;;;;22.27;36.21;92215.88;4941868;28;7224;-57
2024/03/30 13:36:46;;;;;;;;;;;;;;;22.17;36.28;92217.63;4978422;28;7012;-57
2024/03/30 13:39:13;;;;;;;;;;;;;;;22.17;36.57;92207.41;5005238;28;7574;-57
2024/03/30 13:42:07;;;;;;;;;;;;;;;22.18;36.31;92221.84;4998198;28;7001;-57
2024/03/30 13:44:36;;;;;;;;;;;;;;;22.17;36.08;92231.31;5002962;28;7143;-57
2024/03/30 13:47:15;;;;;;;;;;;;;;;22.16;36.22;92229.84;5052984;28;7319;-57
2024/03/30 13:49:46;;;;;;;;;;;;;;;22.18;35.94;92265.63;5055308;28;9780;-57
2024/03/30 13:52:13;;;;;;;;;;;;;;;22.20;35.80;92252.88;5068534;28;7261;-57
2024/03/30 13:54:55;;;;;;;;;;;;;;;22.23;35.41;92251.78;5045595;28;7147;-57